createdAt,value
2022-09-18T00:00:00.005Z,13.07
2022-09-18T00:00:24.231Z,13.43
2022-09-18T00:00:48.219Z,13.40
2022-09-18T00:02:03.410Z,13.02
2022-09-18T00:02:26.043Z,13.10
2022-09-18T00:02:47.934Z,13.43
2022-09-18T00:03:25.112Z,13.00
2022-09-18T00:03:47.656Z,13.05
2022-09-18T00:04:14.289Z,12.48
2022-09-18T00:04:57.857Z,13.20
2022-09-18T00:05:36.957Z,13.57
2022-09-18T00:06:01.156Z,12.80
2022-09-18T00:06:25.577Z,13.60
2022-09-18T00:06:47.542Z,13.38
2022-09-18T00:07:09.692Z,13.00
2022-09-18T00:07:31.679Z,12.95
2022-09-18T00:07:53.460Z,12.70
2022-09-18T00:09:08.481Z,12.15
2022-09-18T00:09:30.644Z,12.45
2022-09-18T00:10:36.803Z,12.88
2022-09-18T00:11:05.062Z,13.02
2022-09-18T00:12:05.859Z,12.75
2022-09-18T00:12:27.634Z,12.45
2022-09-18T00:12:49.484Z,12.48
2022-09-18T00:13:11.612Z,13.45
2022-09-18T00:13:52.330Z,12.85
2022-09-18T00:14:23.640Z,12.75
2022-09-18T00:14:45.627Z,12.60
2022-09-18T00:15:07.790Z,12.50
2022-09-18T00:15:29.768Z,13.00
2022-09-18T00:16:04.056Z,13.27
2022-09-18T00:16:26.805Z,12.80
2022-09-18T00:16:49.646Z,12.55
2022-09-18T00:17:11.981Z,12.50
2022-09-18T00:17:34.252Z,12.52
2022-09-18T00:17:56.166Z,12.88
2022-09-18T00:18:18.244Z,12.93
2022-09-18T00:18:46.230Z,12.52
2022-09-18T00:19:09.370Z,12.65
2022-09-18T00:19:31.213Z,13.00
2022-09-18T00:19:54.117Z,12.07
2022-09-18T00:20:16.079Z,12.82
2022-09-18T00:20:39.002Z,12.65
2022-09-18T00:21:15.262Z,13.05
2022-09-18T00:21:51.703Z,12.57
2022-09-18T00:22:13.992Z,12.35
2022-09-18T00:22:36.067Z,12.45
2022-09-18T00:22:59.002Z,12.38
2022-09-18T00:23:21.949Z,12.23
2022-09-18T00:23:44.635Z,12.10
2022-09-18T00:24:06.951Z,11.85
2022-09-18T00:24:28.844Z,12.13
2022-09-18T00:24:50.798Z,12.68
2022-09-18T00:25:12.880Z,11.52
2022-09-18T00:25:34.684Z,10.88
2022-09-18T00:25:56.895Z,11.82
2022-09-18T00:26:19.436Z,12.18
2022-09-18T00:27:42.999Z,11.75
2022-09-18T00:28:05.604Z,11.27
2022-09-18T00:28:27.869Z,11.43
2022-09-18T00:28:49.673Z,11.00
2022-09-18T00:29:12.944Z,11.05
2022-09-18T00:29:35.025Z,11.10
2022-09-18T00:29:56.958Z,11.57
2022-09-18T00:30:18.789Z,10.98
2022-09-18T00:30:43.189Z,11.10
2022-09-18T00:31:30.781Z,10.85
2022-09-18T00:31:59.990Z,10.77
2022-09-18T00:32:34.147Z,10.50
2022-09-18T00:32:56.841Z,10.68
2022-09-18T00:33:18.777Z,10.68
2022-09-18T00:33:41.892Z,10.68
2022-09-18T00:34:08.751Z,11.15
2022-09-18T00:35:35.829Z,10.68
2022-09-18T00:36:01.333Z,10.70
2022-09-18T00:36:23.637Z,10.77
2022-09-18T00:36:46.149Z,10.57
2022-09-18T00:37:08.332Z,10.68
2022-09-18T00:37:30.120Z,10.75
2022-09-18T00:37:52.185Z,10.63
2022-09-18T00:38:13.899Z,11.10
2022-09-18T00:38:36.536Z,10.40
2022-09-18T00:39:03.309Z,10.60
2022-09-18T00:39:27.579Z,10.82
2022-09-18T00:39:49.411Z,11.30
2022-09-18T00:40:11.220Z,10.85
2022-09-18T00:40:33.105Z,10.55
2022-09-18T00:41:09.338Z,10.90
2022-09-18T00:41:36.966Z,10.75
2022-09-18T00:41:58.750Z,10.70
2022-09-18T00:42:21.193Z,10.70
2022-09-18T00:42:44.313Z,10.40
2022-09-18T00:43:24.050Z,10.68
2022-09-18T00:43:46.908Z,9.70
2022-09-18T00:44:29.993Z,10.23
2022-09-18T00:44:52.056Z,10.50
2022-09-18T00:45:14.052Z,10.00
2022-09-18T00:45:35.947Z,10.05
2022-09-18T00:46:08.186Z,9.80
2022-09-18T00:46:36.231Z,10.70
2022-09-18T00:47:19.966Z,10.43
2022-09-18T00:47:43.229Z,10.95
2022-09-18T00:48:06.915Z,10.50
2022-09-18T00:48:52.286Z,10.40
2022-09-18T00:49:18.621Z,10.18
2022-09-18T00:49:56.058Z,10.10
2022-09-18T00:50:24.584Z,10.27
2022-09-18T00:50:46.401Z,11.27
2022-09-18T00:51:08.980Z,10.57
2022-09-18T00:51:34.474Z,11.00
2022-09-18T00:51:59.912Z,11.18
2022-09-18T00:52:26.749Z,10.43
2022-09-18T00:54:18.261Z,11.55
2022-09-18T00:54:41.250Z,10.80
2022-09-18T00:55:09.724Z,11.05
2022-09-18T00:55:35.533Z,11.20
2022-09-18T00:56:01.296Z,10.73
2022-09-18T00:56:24.289Z,10.85
2022-09-18T00:56:47.618Z,11.38
2022-09-18T00:57:23.017Z,11.07
2022-09-18T00:57:53.033Z,11.43
2022-09-18T00:58:14.805Z,10.93
2022-09-18T00:58:37.396Z,11.25
2022-09-18T00:58:59.736Z,10.95
2022-09-18T00:59:31.333Z,10.95
2022-09-18T00:59:54.674Z,11.48
2022-09-18T01:00:16.708Z,11.57
2022-09-18T01:00:47.204Z,10.70
2022-09-18T01:01:10.520Z,11.18
2022-09-18T01:01:32.470Z,11.10
2022-09-18T01:01:56.169Z,11.13
2022-09-18T01:02:18.575Z,10.90
2022-09-18T01:02:43.664Z,11.60
2022-09-18T01:03:06.747Z,11.48
2022-09-18T01:03:30.055Z,11.20
2022-09-18T01:03:57.586Z,11.43
2022-09-18T01:04:19.348Z,10.93
2022-09-18T01:04:41.314Z,10.75
2022-09-18T01:05:34.908Z,11.05
2022-09-18T01:06:05.104Z,11.82
2022-09-18T01:07:04.171Z,11.30
2022-09-18T01:07:31.475Z,11.45
2022-09-18T01:08:02.035Z,11.50
2022-09-18T01:08:44.187Z,11.48
2022-09-18T01:09:28.511Z,11.20
2022-09-18T01:10:15.075Z,11.18
2022-09-18T01:11:00.438Z,11.23
2022-09-18T01:11:34.566Z,11.25
2022-09-18T01:12:21.607Z,11.55
2022-09-18T01:13:06.491Z,11.13
2022-09-18T01:13:53.896Z,11.52
2022-09-18T01:14:36.411Z,11.48
2022-09-18T01:15:29.242Z,11.05
2022-09-18T01:16:02.274Z,11.55
2022-09-18T01:16:48.579Z,11.57
2022-09-18T01:17:37.107Z,11.23
2022-09-18T01:18:32.799Z,11.65
2022-09-18T01:19:02.565Z,11.63
2022-09-18T01:20:22.475Z,11.30
2022-09-18T01:21:33.806Z,12.10
2022-09-18T01:23:17.892Z,12.25
2022-09-18T01:24:10.740Z,11.63
2022-09-18T01:24:50.348Z,11.95
2022-09-18T01:26:06.047Z,11.73
2022-09-18T01:27:14.790Z,11.75
2022-09-18T01:28:20.505Z,11.75
2022-09-18T01:29:39.394Z,12.00
2022-09-18T01:30:16.122Z,11.93
2022-09-18T01:31:27.047Z,11.45
2022-09-18T01:32:01.615Z,12.00
2022-09-18T01:32:23.661Z,12.20
2022-09-18T01:32:56.295Z,11.73
2022-09-18T01:33:58.747Z,12.23
2022-09-18T01:34:30.243Z,11.65
2022-09-18T01:35:09.807Z,12.35
2022-09-18T01:36:49.877Z,12.48
2022-09-18T01:37:30.913Z,12.05
2022-09-18T01:37:52.675Z,12.57
2022-09-18T01:40:15.551Z,12.18
2022-09-18T01:40:44.536Z,12.30
2022-09-18T01:41:27.591Z,13.27
2022-09-18T01:41:51.946Z,12.70
2022-09-18T01:42:22.941Z,12.68
2022-09-18T01:42:48.398Z,12.88
2022-09-18T01:43:14.691Z,13.23
2022-09-18T01:43:39.078Z,13.18
2022-09-18T01:44:07.024Z,12.27
2022-09-18T01:44:32.241Z,12.30
2022-09-18T01:45:08.960Z,12.85
2022-09-18T01:45:35.804Z,12.82
2022-09-18T01:46:04.151Z,12.40
2022-09-18T01:46:26.950Z,12.23
2022-09-18T01:46:50.401Z,12.30
2022-09-18T01:47:40.776Z,12.20
2022-09-18T01:48:08.161Z,12.27
2022-09-18T01:48:34.370Z,12.68
2022-09-18T01:49:21.544Z,12.13
2022-09-18T01:49:47.300Z,12.23
2022-09-18T01:50:29.690Z,13.32
2022-09-18T01:51:37.980Z,12.80
2022-09-18T01:52:06.854Z,12.27
2022-09-18T01:52:45.252Z,12.23
2022-09-18T01:53:14.083Z,12.07
2022-09-18T01:53:53.374Z,12.35
2022-09-18T01:54:58.353Z,12.30
2022-09-18T01:55:26.083Z,12.45
2022-09-18T01:56:02.913Z,12.57
2022-09-18T01:56:27.977Z,12.23
2022-09-18T01:57:22.489Z,12.05
2022-09-18T01:57:57.342Z,12.30
2022-09-18T01:58:22.849Z,11.38
2022-09-18T01:58:47.311Z,11.35
2022-09-18T01:59:16.041Z,11.80
2022-09-18T01:59:44.794Z,12.15
2022-09-18T02:00:12.393Z,11.68
2022-09-18T02:00:38.421Z,11.68
2022-09-18T02:01:07.473Z,11.65
2022-09-18T02:01:32.399Z,11.77
2022-09-18T02:01:58.564Z,11.98
2022-09-18T02:02:28.158Z,11.65
2022-09-18T02:02:53.030Z,11.70
2022-09-18T02:03:20.286Z,11.68
2022-09-18T02:04:02.429Z,11.60
2022-09-18T02:04:28.340Z,11.80
2022-09-18T02:04:58.040Z,11.25
2022-09-18T02:05:26.744Z,11.43
2022-09-18T02:06:09.955Z,11.23
2022-09-18T02:06:58.519Z,11.95
2022-09-18T02:08:10.425Z,11.82
2022-09-18T02:08:45.407Z,11.20
2022-09-18T02:09:10.661Z,11.50
2022-09-18T02:09:32.686Z,11.75
2022-09-18T02:09:54.483Z,11.02
2022-09-18T02:10:18.056Z,11.05
2022-09-18T02:10:45.275Z,11.07
2022-09-18T02:11:10.848Z,12.02
2022-09-18T02:11:37.838Z,11.85
2022-09-18T02:12:03.713Z,11.65
2022-09-18T02:12:28.883Z,10.73
2022-09-18T02:12:54.214Z,10.60
2022-09-18T02:13:21.241Z,10.73
2022-09-18T02:14:10.045Z,11.05
2022-09-18T02:14:42.886Z,10.90
2022-09-18T02:15:11.074Z,10.98
2022-09-18T02:15:38.076Z,10.95
2022-09-18T02:16:05.136Z,10.35
2022-09-18T02:16:34.510Z,10.70
2022-09-18T02:17:03.162Z,10.85
2022-09-18T02:17:45.653Z,10.32
2022-09-18T02:18:12.761Z,10.40
2022-09-18T02:18:39.637Z,10.18
2022-09-18T02:19:27.730Z,10.48
2022-09-18T02:19:56.500Z,10.38
2022-09-18T02:20:25.487Z,10.15
2022-09-18T02:20:48.904Z,10.40
2022-09-18T02:21:14.616Z,9.85
2022-09-18T02:21:37.409Z,10.05
2022-09-18T02:22:03.343Z,10.35
2022-09-18T02:22:30.263Z,9.90
2022-09-18T02:22:54.841Z,10.07
2022-09-18T02:23:17.067Z,9.75
2022-09-18T02:23:41.605Z,10.20
2022-09-18T02:24:10.423Z,9.95
2022-09-18T02:24:36.900Z,10.07
2022-09-18T02:25:03.572Z,10.13
2022-09-18T02:25:35.307Z,10.48
2022-09-18T02:26:01.711Z,10.52
2022-09-18T02:26:24.620Z,9.32
2022-09-18T02:26:48.557Z,10.25
2022-09-18T02:27:12.313Z,10.85
2022-09-18T02:27:38.451Z,9.90
2022-09-18T02:28:02.203Z,10.48
2022-09-18T02:28:27.682Z,10.13
2022-09-18T02:28:50.422Z,10.75
2022-09-18T02:29:14.577Z,10.15
2022-09-18T02:29:37.123Z,10.05
2022-09-18T02:30:01.829Z,10.10
2022-09-18T02:30:25.086Z,10.65
2022-09-18T02:30:47.492Z,10.15
2022-09-18T02:31:09.476Z,9.60
2022-09-18T02:31:31.625Z,10.40
2022-09-18T02:31:53.942Z,10.50
2022-09-18T02:32:16.127Z,10.55
2022-09-18T02:32:40.068Z,10.07
2022-09-18T02:33:02.504Z,10.20
2022-09-18T02:33:29.400Z,10.20
2022-09-18T02:33:52.509Z,9.82
2022-09-18T02:34:14.870Z,9.93
2022-09-18T02:34:36.678Z,9.80
2022-09-18T02:34:58.588Z,9.70
2022-09-18T02:35:21.281Z,10.32
2022-09-18T02:35:48.509Z,10.20
2022-09-18T02:36:22.799Z,10.35
2022-09-18T02:36:44.433Z,10.23
2022-09-18T02:37:38.184Z,9.98
2022-09-18T02:38:22.973Z,10.60
2022-09-18T02:38:59.330Z,10.25
2022-09-18T02:39:49.296Z,10.18
2022-09-18T02:40:25.141Z,10.65
2022-09-18T02:41:06.652Z,9.55
2022-09-18T02:41:59.683Z,10.15
2022-09-18T02:42:49.474Z,10.23
2022-09-18T02:43:35.449Z,9.95
2022-09-18T02:44:13.510Z,10.43
2022-09-18T02:44:56.477Z,10.10
2022-09-18T02:46:05.929Z,9.93
2022-09-18T02:46:36.655Z,10.20
2022-09-18T02:47:05.122Z,10.00
2022-09-18T02:47:51.301Z,9.73
2022-09-18T02:48:38.672Z,9.85
2022-09-18T02:49:05.383Z,9.43
2022-09-18T02:49:27.294Z,9.57
2022-09-18T02:50:11.049Z,9.90
2022-09-18T02:51:15.533Z,9.65
2022-09-18T02:51:46.069Z,10.40
2022-09-18T02:52:13.190Z,9.80
2022-09-18T02:52:50.149Z,10.10
2022-09-18T02:53:34.091Z,9.52
2022-09-18T02:54:19.061Z,9.98
2022-09-18T02:54:57.841Z,10.02
2022-09-18T02:55:26.496Z,9.90
2022-09-18T02:55:59.354Z,9.98
2022-09-18T02:56:39.641Z,10.20
2022-09-18T02:57:10.980Z,9.45
2022-09-18T02:57:51.814Z,9.70
2022-09-18T02:58:37.651Z,9.63
2022-09-18T02:59:28.927Z,9.63
2022-09-18T02:59:58.342Z,10.00
2022-09-18T03:00:21.000Z,9.77
2022-09-18T03:00:44.476Z,9.60
2022-09-18T03:01:07.941Z,9.48
2022-09-18T03:01:30.326Z,9.02
2022-09-18T03:01:53.426Z,9.30
2022-09-18T03:02:15.547Z,9.60
2022-09-18T03:02:38.827Z,9.63
2022-09-18T03:03:01.013Z,9.68
2022-09-18T03:03:27.649Z,10.00
2022-09-18T03:03:50.919Z,9.98
2022-09-18T03:04:19.162Z,9.82
2022-09-18T03:04:40.944Z,9.80
2022-09-18T03:05:02.696Z,9.73
2022-09-18T03:05:26.781Z,9.43
2022-09-18T03:05:48.534Z,9.63
2022-09-18T03:06:10.374Z,9.55
2022-09-18T03:06:32.201Z,9.40
2022-09-18T03:06:54.422Z,9.73
2022-09-18T03:07:17.486Z,9.75
2022-09-18T03:07:39.576Z,10.07
2022-09-18T03:08:02.537Z,10.38
2022-09-18T03:08:24.936Z,10.18
2022-09-18T03:08:46.853Z,10.00
2022-09-18T03:09:08.672Z,9.98
2022-09-18T03:09:32.273Z,10.57
2022-09-18T03:09:54.019Z,9.90
2022-09-18T03:10:15.757Z,9.75
2022-09-18T03:10:37.713Z,10.00
2022-09-18T03:10:59.433Z,10.18
2022-09-18T03:11:21.343Z,10.23
2022-09-18T03:11:43.112Z,10.40
2022-09-18T03:12:05.127Z,10.77
2022-09-18T03:12:26.825Z,10.55
2022-09-18T03:12:48.542Z,10.57
2022-09-18T03:13:11.008Z,10.40
2022-09-18T03:13:33.173Z,10.40
2022-09-18T03:13:55.151Z,10.70
2022-09-18T03:14:17.372Z,10.90
2022-09-18T03:14:39.552Z,10.95
2022-09-18T03:15:01.297Z,11.13
2022-09-18T03:15:23.019Z,11.00
2022-09-18T03:15:44.917Z,10.85
2022-09-18T03:16:06.806Z,10.93
2022-09-18T03:16:29.064Z,10.88
2022-09-18T03:16:51.004Z,10.93
2022-09-18T03:17:12.913Z,11.02
2022-09-18T03:17:35.368Z,10.90
2022-09-18T03:17:57.128Z,11.00
2022-09-18T03:18:20.340Z,11.18
2022-09-18T03:18:42.009Z,11.20
2022-09-18T03:19:04.241Z,11.10
2022-09-18T03:19:25.931Z,11.35
2022-09-18T03:19:47.657Z,11.80
2022-09-18T03:20:09.572Z,10.95
2022-09-18T03:20:31.381Z,10.97
2022-09-18T03:20:53.096Z,10.88
2022-09-18T03:21:15.077Z,11.25
2022-09-18T03:21:36.808Z,11.02
2022-09-18T03:21:58.549Z,10.93
2022-09-18T03:22:20.247Z,11.30
2022-09-18T03:22:42.056Z,11.13
2022-09-18T03:23:04.003Z,11.43
2022-09-18T03:23:25.872Z,11.23
2022-09-18T03:23:47.604Z,11.68
2022-09-18T03:24:09.328Z,12.07
2022-09-18T03:24:31.365Z,12.27
2022-09-18T03:24:53.070Z,12.13
2022-09-18T03:25:15.472Z,12.55
2022-09-18T03:25:37.565Z,12.23
2022-09-18T03:25:59.239Z,12.15
2022-09-18T03:26:21.194Z,12.55
2022-09-18T03:26:42.962Z,12.55
2022-09-18T03:27:05.482Z,12.05
2022-09-18T03:27:27.214Z,12.40
2022-09-18T03:27:50.076Z,12.80
2022-09-18T03:28:12.029Z,12.40
2022-09-18T03:28:33.841Z,11.95
2022-09-18T03:28:55.598Z,11.90
2022-09-18T03:29:17.315Z,12.07
2022-09-18T03:29:39.020Z,12.20
2022-09-18T03:30:00.733Z,12.18
2022-09-18T03:30:23.256Z,12.20
2022-09-18T03:30:45.998Z,12.50
2022-09-18T03:31:07.806Z,11.70
2022-09-18T03:31:29.716Z,11.18
2022-09-18T03:31:51.532Z,11.85
2022-09-18T03:32:13.298Z,11.68
2022-09-18T03:32:35.024Z,12.10
2022-09-18T03:32:57.177Z,11.85
2022-09-18T03:33:18.876Z,11.98
2022-09-18T03:33:40.939Z,12.10
2022-09-18T03:34:02.769Z,12.02
2022-09-18T03:34:24.576Z,12.32
2022-09-18T03:34:46.298Z,12.20
2022-09-18T03:35:08.551Z,12.25
2022-09-18T03:35:30.517Z,12.27
2022-09-18T03:35:52.574Z,12.25
2022-09-18T03:36:14.351Z,11.90
2022-09-18T03:36:36.440Z,12.30
2022-09-18T03:36:58.388Z,12.05
2022-09-18T03:37:20.101Z,12.27
2022-09-18T03:37:41.779Z,12.90
2022-09-18T03:38:04.700Z,13.18
2022-09-18T03:38:26.889Z,12.30
2022-09-18T03:38:48.611Z,12.63
2022-09-18T03:39:10.779Z,12.18
2022-09-18T03:39:32.491Z,12.82
2022-09-18T03:39:54.256Z,12.55
2022-09-18T03:40:16.219Z,13.13
2022-09-18T03:40:38.706Z,13.65
2022-09-18T03:41:00.716Z,12.82
2022-09-18T03:41:22.842Z,13.68
2022-09-18T03:41:44.598Z,14.15
2022-09-18T03:42:06.566Z,13.32
2022-09-18T03:42:28.511Z,13.45
2022-09-18T03:42:50.805Z,14.27
2022-09-18T03:43:12.774Z,14.50
2022-09-18T03:43:34.532Z,13.43
2022-09-18T03:43:56.545Z,13.73
2022-09-18T03:44:18.246Z,13.57
2022-09-18T03:44:40.148Z,12.90
2022-09-18T03:45:02.013Z,12.20
2022-09-18T03:45:23.707Z,12.88
2022-09-18T03:45:45.478Z,13.50
2022-09-18T03:46:07.423Z,13.20
2022-09-18T03:46:29.307Z,13.52
2022-09-18T03:46:51.356Z,13.25
2022-09-18T03:47:13.140Z,13.40
2022-09-18T03:47:36.581Z,13.32
2022-09-18T03:47:58.572Z,13.10
2022-09-18T03:48:20.538Z,13.05
2022-09-18T03:48:42.242Z,13.32
2022-09-18T03:49:03.981Z,13.27
2022-09-18T03:49:26.501Z,13.73
2022-09-18T03:49:48.281Z,13.60
2022-09-18T03:50:11.371Z,13.57
2022-09-18T03:50:33.057Z,13.43
2022-09-18T03:50:54.747Z,12.65
2022-09-18T03:51:18.601Z,13.18
2022-09-18T03:51:40.352Z,13.18
2022-09-18T03:52:02.402Z,13.20
2022-09-18T03:52:24.353Z,13.80
2022-09-18T03:52:50.931Z,13.57
2022-09-18T03:53:13.213Z,12.52
2022-09-18T03:53:35.148Z,13.00
2022-09-18T03:53:57.153Z,13.00
2022-09-18T03:54:19.049Z,13.13
2022-09-18T03:54:40.797Z,13.30
2022-09-18T03:55:02.502Z,13.50
2022-09-18T03:55:24.167Z,12.63
2022-09-18T03:55:47.067Z,13.73
2022-09-18T03:56:08.980Z,12.82
2022-09-18T03:56:30.742Z,13.15
2022-09-18T03:56:52.627Z,12.57
2022-09-18T03:57:14.537Z,12.80
2022-09-18T03:57:36.514Z,13.07
2022-09-18T03:57:58.780Z,13.40
2022-09-18T03:58:20.625Z,13.45
2022-09-18T03:58:42.402Z,13.32
2022-09-18T03:59:04.467Z,13.27
2022-09-18T03:59:26.180Z,12.90
2022-09-18T03:59:48.042Z,13.60
2022-09-18T04:00:10.557Z,13.38
2022-09-18T04:00:32.335Z,13.02
2022-09-18T04:00:54.507Z,13.30
2022-09-18T04:01:16.599Z,13.93
2022-09-18T04:01:38.341Z,13.52
2022-09-18T04:02:00.454Z,13.57
2022-09-18T04:02:22.232Z,13.43
2022-09-18T04:02:44.705Z,13.73
2022-09-18T04:03:06.588Z,13.50
2022-09-18T04:03:28.435Z,13.07
2022-09-18T04:03:50.416Z,13.00
2022-09-18T04:04:13.239Z,12.82
2022-09-18T04:04:35.513Z,12.82
2022-09-18T04:04:57.810Z,12.82
2022-09-18T04:05:19.625Z,12.88
2022-09-18T04:05:41.417Z,13.68
2022-09-18T04:06:03.151Z,13.15
2022-09-18T04:06:25.511Z,12.77
2022-09-18T04:06:47.255Z,12.73
2022-09-18T04:07:09.025Z,13.25
2022-09-18T04:07:30.814Z,12.98
2022-09-18T04:07:53.038Z,12.48
2022-09-18T04:08:14.780Z,12.68
2022-09-18T04:08:38.100Z,12.98
2022-09-18T04:08:59.842Z,12.82
2022-09-18T04:09:21.660Z,12.93
2022-09-18T04:09:43.594Z,12.60
2022-09-18T04:10:05.588Z,12.25
2022-09-18T04:10:27.668Z,13.15
2022-09-18T04:10:49.445Z,13.02
2022-09-18T04:11:11.217Z,12.68
2022-09-18T04:11:33.169Z,12.88
2022-09-18T04:11:54.931Z,12.95
2022-09-18T04:12:16.974Z,12.95
2022-09-18T04:12:39.015Z,13.70
2022-09-18T04:13:00.798Z,13.68
2022-09-18T04:13:22.531Z,13.55
2022-09-18T04:13:44.497Z,12.70
2022-09-18T04:14:06.226Z,13.88
2022-09-18T04:14:30.235Z,13.55
2022-09-18T04:14:52.400Z,12.77
2022-09-18T04:15:15.458Z,13.05
2022-09-18T04:15:37.181Z,13.50
2022-09-18T04:15:59.029Z,12.88
2022-09-18T04:16:21.152Z,12.82
2022-09-18T04:16:43.129Z,13.52
2022-09-18T04:17:05.107Z,13.52
2022-09-18T04:17:26.990Z,13.48
2022-09-18T04:17:48.789Z,13.82
2022-09-18T04:18:13.656Z,13.25
2022-09-18T04:18:35.422Z,12.82
2022-09-18T04:18:57.257Z,13.27
2022-09-18T04:19:18.986Z,12.90
2022-09-18T04:19:40.957Z,12.90
2022-09-18T04:20:03.341Z,13.43
2022-09-18T04:20:25.106Z,13.55
2022-09-18T04:20:48.311Z,12.50
2022-09-18T04:21:10.064Z,12.70
2022-09-18T04:21:32.706Z,13.85
2022-09-18T04:21:54.750Z,13.32
2022-09-18T04:22:16.451Z,13.10
2022-09-18T04:22:38.161Z,13.55
2022-09-18T04:23:00.077Z,13.60
2022-09-18T04:23:22.165Z,13.52
2022-09-18T04:23:43.881Z,13.23
2022-09-18T04:24:06.309Z,13.67
2022-09-18T04:24:28.000Z,13.23
2022-09-18T04:24:50.462Z,13.57
2022-09-18T04:25:12.289Z,13.88
2022-09-18T04:25:34.013Z,13.25
2022-09-18T04:25:55.762Z,13.60
2022-09-18T04:26:17.814Z,13.95
2022-09-18T04:26:39.519Z,13.48
2022-09-18T04:27:01.315Z,14.18
2022-09-18T04:27:23.100Z,13.93
2022-09-18T04:27:46.252Z,13.90
2022-09-18T04:28:08.386Z,13.73
2022-09-18T04:28:30.119Z,13.02
2022-09-18T04:28:52.004Z,12.35
2022-09-18T04:29:13.999Z,13.43
2022-09-18T04:29:35.696Z,13.57
2022-09-18T04:29:57.500Z,13.35
2022-09-18T04:30:19.292Z,13.25
2022-09-18T04:30:41.060Z,13.70
2022-09-18T04:31:03.430Z,13.55
2022-09-18T04:31:25.497Z,13.20
2022-09-18T04:31:47.339Z,13.40
2022-09-18T04:32:09.594Z,13.35
2022-09-18T04:32:31.314Z,13.80
2022-09-18T04:32:52.984Z,13.75
2022-09-18T04:33:15.984Z,13.57
2022-09-18T04:33:37.977Z,13.20
2022-09-18T04:33:59.786Z,12.98
2022-09-18T04:34:21.479Z,12.90
2022-09-18T04:34:43.566Z,13.35
2022-09-18T04:35:05.874Z,13.85
2022-09-18T04:35:28.157Z,13.68
2022-09-18T04:35:50.593Z,13.52
2022-09-18T04:36:12.318Z,13.95
2022-09-18T04:36:34.029Z,13.60
2022-09-18T04:36:55.758Z,13.60
2022-09-18T04:37:17.483Z,12.85
2022-09-18T04:37:39.259Z,13.15
2022-09-18T04:38:01.195Z,12.63
2022-09-18T04:38:27.759Z,13.00
2022-09-18T04:38:49.764Z,13.70
2022-09-18T04:39:13.568Z,13.60
2022-09-18T04:39:35.851Z,13.25
2022-09-18T04:39:57.866Z,12.93
2022-09-18T04:40:20.747Z,12.85
2022-09-18T04:40:42.582Z,13.43
2022-09-18T04:41:04.510Z,13.27
2022-09-18T04:41:26.203Z,12.70
2022-09-18T04:41:48.266Z,12.82
2022-09-18T04:42:10.017Z,13.07
2022-09-18T04:42:32.511Z,12.55
2022-09-18T04:42:55.646Z,12.57
2022-09-18T04:43:19.182Z,13.10
2022-09-18T04:43:41.186Z,12.85
2022-09-18T04:44:03.274Z,12.55
2022-09-18T04:44:25.410Z,13.02
2022-09-18T04:44:47.296Z,12.63
2022-09-18T04:45:10.125Z,12.73
2022-09-18T04:45:31.821Z,11.90
2022-09-18T04:45:56.561Z,12.23
2022-09-18T04:46:18.313Z,12.65
2022-09-18T04:46:40.215Z,12.77
2022-09-18T04:47:02.241Z,12.48
2022-09-18T04:47:24.092Z,12.48
2022-09-18T04:47:47.394Z,12.45
2022-09-18T04:48:09.176Z,12.10
2022-09-18T04:48:30.891Z,11.80
2022-09-18T04:48:54.134Z,11.95
2022-09-18T04:49:15.850Z,11.77
2022-09-18T04:49:37.524Z,12.23
2022-09-18T04:49:59.284Z,11.80
2022-09-18T04:50:21.016Z,12.10
2022-09-18T04:50:42.717Z,12.55
2022-09-18T04:51:04.687Z,12.02
2022-09-18T04:51:26.436Z,11.73
2022-09-18T04:51:48.241Z,11.90
2022-09-18T04:52:10.632Z,12.02
2022-09-18T04:52:32.766Z,11.60
2022-09-18T04:52:54.542Z,11.60
2022-09-18T04:53:16.321Z,12.13
2022-09-18T04:53:39.478Z,11.70
2022-09-18T04:54:02.543Z,11.75
2022-09-18T04:54:24.392Z,12.38
2022-09-18T04:54:47.417Z,12.20
2022-09-18T04:55:09.555Z,11.45
2022-09-18T04:55:33.566Z,11.30
2022-09-18T04:55:55.305Z,10.95
2022-09-18T04:56:17.214Z,10.90
2022-09-18T04:56:39.357Z,11.02
2022-09-18T04:57:01.208Z,11.23
2022-09-18T04:57:23.177Z,11.25
2022-09-18T04:57:44.979Z,11.65
2022-09-18T04:58:07.039Z,11.10
2022-09-18T04:58:28.755Z,10.80
2022-09-18T04:58:51.177Z,10.55
2022-09-18T04:59:12.982Z,10.77
2022-09-18T04:59:34.716Z,10.70
2022-09-18T04:59:56.437Z,10.80
2022-09-18T05:00:18.483Z,11.10
2022-09-18T05:00:41.016Z,10.73
2022-09-18T05:01:03.035Z,10.68
2022-09-18T05:01:25.086Z,10.43
2022-09-18T05:01:47.091Z,9.60
2022-09-18T05:02:09.076Z,9.77
2022-09-18T05:02:31.077Z,12.80
2022-09-18T05:02:52.826Z,13.63
2022-09-18T05:03:15.006Z,11.25
2022-09-18T05:03:36.741Z,10.90
2022-09-18T05:03:58.447Z,9.80
2022-09-18T05:04:20.163Z,9.77
2022-09-18T05:04:41.873Z,10.32
2022-09-18T05:05:03.673Z,10.10
2022-09-18T05:05:25.427Z,9.80
2022-09-18T05:05:48.307Z,9.45
2022-09-18T05:06:10.146Z,9.80
2022-09-18T05:06:32.066Z,9.50
2022-09-18T05:06:53.895Z,9.27
2022-09-18T05:07:15.659Z,9.13
2022-09-18T05:07:37.377Z,9.05
2022-09-18T05:08:00.169Z,8.68
2022-09-18T05:08:23.251Z,8.93
2022-09-18T05:08:45.001Z,9.13
2022-09-18T05:09:06.754Z,9.18
2022-09-18T05:09:28.544Z,8.82
2022-09-18T05:09:51.633Z,8.52
2022-09-18T05:10:14.827Z,8.32
2022-09-18T05:10:36.560Z,8.00
2022-09-18T05:10:58.391Z,8.50
2022-09-18T05:11:20.590Z,8.30
2022-09-18T05:11:42.359Z,8.40
2022-09-18T05:12:04.312Z,8.63
2022-09-18T05:12:26.042Z,8.15
2022-09-18T05:12:48.164Z,8.25
2022-09-18T05:13:10.316Z,8.38
2022-09-18T05:13:32.145Z,8.02
2022-09-18T05:13:56.727Z,7.88
2022-09-18T05:14:19.763Z,7.93
2022-09-18T05:14:41.509Z,8.00
2022-09-18T05:15:03.437Z,8.57
2022-09-18T05:15:25.272Z,8.38
2022-09-18T05:15:47.039Z,8.20
2022-09-18T05:16:10.147Z,7.82
2022-09-18T05:16:31.953Z,8.13
2022-09-18T05:16:53.997Z,8.00
2022-09-18T05:17:15.952Z,7.95
2022-09-18T05:17:40.212Z,8.15
2022-09-18T05:18:07.733Z,7.97
2022-09-18T05:18:32.338Z,8.20
2022-09-18T05:18:54.107Z,8.10
2022-09-18T05:19:15.846Z,8.68
2022-09-18T05:19:37.853Z,8.40
2022-09-18T05:19:59.843Z,8.32
2022-09-18T05:20:21.595Z,7.82
2022-09-18T05:20:43.289Z,8.77
2022-09-18T05:21:06.483Z,8.02
2022-09-18T05:21:28.447Z,7.57
2022-09-18T05:21:51.299Z,7.40
2022-09-18T05:22:13.061Z,7.43
2022-09-18T05:22:35.109Z,7.60
2022-09-18T05:22:57.115Z,7.18
2022-09-18T05:23:18.785Z,7.45
2022-09-18T05:23:40.582Z,7.50
2022-09-18T05:24:03.491Z,7.05
2022-09-18T05:24:25.976Z,7.03
2022-09-18T05:24:47.718Z,7.35
2022-09-18T05:25:10.023Z,7.20
2022-09-18T05:25:32.419Z,6.95
2022-09-18T05:25:54.156Z,7.13
2022-09-18T05:26:16.176Z,7.43
2022-09-18T05:26:38.013Z,7.68
2022-09-18T05:26:59.992Z,7.60
2022-09-18T05:27:26.654Z,7.30
2022-09-18T05:28:02.038Z,7.43
2022-09-18T05:28:23.831Z,7.38
2022-09-18T05:28:49.912Z,7.43
2022-09-18T05:29:12.091Z,7.72
2022-09-18T05:29:33.844Z,7.70
2022-09-18T05:29:55.765Z,7.68
2022-09-18T05:30:17.557Z,8.20
2022-09-18T05:30:40.511Z,8.45
2022-09-18T05:31:02.492Z,9.00
2022-09-18T05:31:24.312Z,8.57
2022-09-18T05:31:46.293Z,10.35
2022-09-18T05:32:08.118Z,10.40
2022-09-18T05:32:29.817Z,10.13
2022-09-18T05:32:59.972Z,9.75
2022-09-18T05:33:21.859Z,8.18
2022-09-18T05:33:43.873Z,7.72
2022-09-18T05:34:05.793Z,7.65
2022-09-18T05:34:27.745Z,7.38
2022-09-18T05:34:52.243Z,7.13
2022-09-18T05:35:16.655Z,7.57
2022-09-18T05:35:40.019Z,7.38
2022-09-18T05:36:05.543Z,7.43
2022-09-18T05:36:27.465Z,7.70
2022-09-18T05:36:49.175Z,7.47
2022-09-18T05:37:13.517Z,7.22
2022-09-18T05:37:35.263Z,7.00
2022-09-18T05:37:57.591Z,7.10
2022-09-18T05:38:19.349Z,7.35
2022-09-18T05:38:41.140Z,7.10
2022-09-18T05:39:03.077Z,7.57
2022-09-18T05:39:25.255Z,7.18
2022-09-18T05:39:46.964Z,6.70
2022-09-18T05:40:09.629Z,7.00
2022-09-18T05:40:36.335Z,6.93
2022-09-18T05:41:02.731Z,7.07
2022-09-18T05:41:24.503Z,7.30
2022-09-18T05:41:50.682Z,7.00
2022-09-18T05:42:12.353Z,7.03
2022-09-18T05:42:34.108Z,6.90
2022-09-18T05:42:55.995Z,6.85
2022-09-18T05:43:18.198Z,7.30
2022-09-18T05:43:44.880Z,6.88
2022-09-18T05:44:06.631Z,6.30
2022-09-18T05:44:28.570Z,6.32
2022-09-18T05:44:50.465Z,6.68
2022-09-18T05:45:12.520Z,6.90
2022-09-18T05:45:35.067Z,6.57
2022-09-18T05:45:57.405Z,6.93
2022-09-18T05:46:19.727Z,6.50
2022-09-18T05:46:41.552Z,6.20
2022-09-18T05:47:03.457Z,6.40
2022-09-18T05:47:25.193Z,6.75